sensor_id;sensor_type;location;lat;lon;timestamp;P1;durP1;ratioP1;P2;durP2;ratioP2
23743;SDS011;12052;53.478;10.182;2024-01-10T00:01:17;13.20;;;6.63;;
23743;SDS011;12052;53.478;10.182;2024-01-10T00:03:43;9.45;;;5.65;;
23743;SDS011;12052;53.478;10.182;2024-01-10T00:06:09;16.48;;;7.20;;
23743;SDS011;12052;53.478;10.182;2024-01-10T00:08:35;11.05;;;6.15;;
23743;SDS011;12052;53.478;10.182;2024-01-10T00:11:01;14.00;;;5.55;;
23743;SDS011;12052;53.478;10.182;2024-01-10T00:13:26;13.45;;;6.25;;
23743;SDS011;12052;53.478;10.182;2024-01-10T00:15:52;9.88;;;5.30;;
23743;SDS011;12052;53.478;10.182;2024-01-10T00:18:20;15.48;;;7.13;;
23743;SDS011;12052;53.478;10.182;2024-01-10T00:20:46;11.93;;;5.82;;
23743;SDS011;12052;53.478;10.182;2024-01-10T00:23:12;11.15;;;6.72;;
23743;SDS011;12052;53.478;10.182;2024-01-10T00:25:38;12.77;;;6.38;;
23743;SDS011;12052;53.478;10.182;2024-01-10T00:28:04;12.05;;;6.43;;
23743;SDS011;12052;53.478;10.182;2024-01-10T00:30:30;14.82;;;7.25;;
23743;SDS011;12052;53.478;10.182;2024-01-10T00:32:56;12.50;;;7.95;;
23743;SDS011;12052;53.478;10.182;2024-01-10T00:35:22;12.80;;;6.03;;
23743;SDS011;12052;53.478;10.182;2024-01-10T00:37:48;12.82;;;6.50;;
23743;SDS011;12052;53.478;10.182;2024-01-10T00:40:13;11.80;;;6.95;;
23743;SDS011;12052;53.478;10.182;2024-01-10T00:42:39;11.77;;;6.55;;
23743;SDS011;12052;53.478;10.182;2024-01-10T00:45:04;17.40;;;7.65;;
23743;SDS011;12052;53.478;10.182;2024-01-10T00:47:30;12.52;;;6.20;;
23743;SDS011;12052;53.478;10.182;2024-01-10T00:49:56;13.25;;;8.07;;
23743;SDS011;12052;53.478;10.182;2024-01-10T00:52:21;9.95;;;5.95;;
23743;SDS011;12052;53.478;10.182;2024-01-10T00:54:47;14.50;;;7.90;;
23743;SDS011;12052;53.478;10.182;2024-01-10T00:57:12;14.88;;;7.80;;
23743;SDS011;12052;53.478;10.182;2024-01-10T00:59:39;10.50;;;6.43;;
23743;SDS011;12052;53.478;10.182;2024-01-10T01:02:05;15.38;;;8.60;;
23743;SDS011;12052;53.478;10.182;2024-01-10T01:04:31;13.75;;;7.03;;
23743;SDS011;12052;53.478;10.182;2024-01-10T01:06:56;12.80;;;6.90;;
23743;SDS011;12052;53.478;10.182;2024-01-10T01:09:22;11.50;;;6.18;;
23743;SDS011;12052;53.478;10.182;2024-01-10T01:11:47;12.20;;;6.30;;
23743;SDS011;12052;53.478;10.182;2024-01-10T01:14:13;12.65;;;6.75;;
23743;SDS011;12052;53.478;10.182;2024-01-10T01:16:38;16.20;;;7.63;;
23743;SDS011;12052;53.478;10.182;2024-01-10T01:19:04;20.25;;;7.82;;
23743;SDS011;12052;53.478;10.182;2024-01-10T01:21:30;16.13;;;7.03;;
23743;SDS011;12052;53.478;10.182;2024-01-10T01:23:55;15.52;;;7.53;;
23743;SDS011;12052;53.478;10.182;2024-01-10T01:26:21;14.60;;;8.23;;
23743;SDS011;12052;53.478;10.182;2024-01-10T01:28:46;11.57;;;7.13;;
23743;SDS011;12052;53.478;10.182;2024-01-10T01:31:12;12.45;;;6.63;;
23743;SDS011;12052;53.478;10.182;2024-01-10T01:33:38;15.23;;;9.07;;
23743;SDS011;12052;53.478;10.182;2024-01-10T01:36:04;14.25;;;7.80;;
23743;SDS011;12052;53.478;10.182;2024-01-10T01:38:31;15.13;;;6.97;;
23743;SDS011;12052;53.478;10.182;2024-01-10T01:40:57;10.88;;;5.80;;
23743;SDS011;12052;53.478;10.182;2024-01-10T01:43:23;29.40;;;7.55;;
23743;SDS011;12052;53.478;10.182;2024-01-10T01:45:51;18.50;;;7.00;;
23743;SDS011;12052;53.478;10.182;2024-01-10T01:48:19;11.05;;;5.45;;
23743;SDS011;12052;53.478;10.182;2024-01-10T01:50:45;11.55;;;7.10;;
23743;SDS011;12052;53.478;10.182;2024-01-10T01:53:13;12.27;;;7.05;;
23743;SDS011;12052;53.478;10.182;2024-01-10T01:55:40;15.75;;;7.07;;
23743;SDS011;12052;53.478;10.182;2024-01-10T01:58:08;12.95;;;7.15;;
23743;SDS011;12052;53.478;10.182;2024-01-10T02:00:34;8.20;;;5.40;;
23743;SDS011;12052;53.478;10.182;2024-01-10T02:03:00;18.65;;;9.32;;
23743;SDS011;12052;53.478;10.182;2024-01-10T02:05:26;14.80;;;8.57;;
23743;SDS011;12052;53.478;10.182;2024-01-10T02:07:52;20.83;;;9.38;;
23743;SDS011;12052;53.478;10.182;2024-01-10T02:10:19;18.77;;;9.07;;
23743;SDS011;12052;53.478;10.182;2024-01-10T02:12:45;24.35;;;8.63;;
23743;SDS011;12052;53.478;10.182;2024-01-10T02:15:11;18.20;;;9.23;;
23743;SDS011;12052;53.478;10.182;2024-01-10T02:17:38;15.57;;;8.43;;
23743;SDS011;12052;53.478;10.182;2024-01-10T02:22:35;16.67;;;8.90;;
23743;SDS011;12052;53.478;10.182;2024-01-10T02:25:00;25.08;;;7.93;;
23743;SDS011;12052;53.478;10.182;2024-01-10T02:27:26;12.55;;;7.28;;
23743;SDS011;12052;53.478;10.182;2024-01-10T02:29:52;27.77;;;7.25;;
23743;SDS011;12052;53.478;10.182;2024-01-10T02:32:20;20.17;;;8.82;;
23743;SDS011;12052;53.478;10.182;2024-01-10T02:34:45;14.38;;;7.50;;
23743;SDS011;12052;53.478;10.182;2024-01-10T02:37:11;18.50;;;9.55;;
23743;SDS011;12052;53.478;10.182;2024-01-10T02:39:36;15.25;;;7.88;;
23743;SDS011;12052;53.478;10.182;2024-01-10T02:42:02;19.80;;;9.60;;
23743;SDS011;12052;53.478;10.182;2024-01-10T02:44:27;18.25;;;8.88;;
23743;SDS011;12052;53.478;10.182;2024-01-10T02:46:53;20.23;;;9.85;;
23743;SDS011;12052;53.478;10.182;2024-01-10T02:49:19;28.65;;;9.57;;
23743;SDS011;12052;53.478;10.182;2024-01-10T02:51:44;26.63;;;8.95;;
23743;SDS011;12052;53.478;10.182;2024-01-10T02:54:10;12.10;;;6.55;;
23743;SDS011;12052;53.478;10.182;2024-01-10T02:56:36;24.42;;;10.43;;
23743;SDS011;12052;53.478;10.182;2024-01-10T02:59:01;19.83;;;9.68;;
23743;SDS011;12052;53.478;10.182;2024-01-10T03:01:27;52.03;;;12.80;;
23743;SDS011;12052;53.478;10.182;2024-01-10T03:03:53;22.40;;;10.77;;
23743;SDS011;12052;53.478;10.182;2024-01-10T03:06:19;25.60;;;9.40;;
23743;SDS011;12052;53.478;10.182;2024-01-10T03:08:44;16.33;;;9.27;;
23743;SDS011;12052;53.478;10.182;2024-01-10T03:11:10;26.52;;;8.55;;
23743;SDS011;12052;53.478;10.182;2024-01-10T03:13:35;32.25;;;8.40;;
23743;SDS011;12052;53.478;10.182;2024-01-10T03:16:02;15.50;;;8.80;;
23743;SDS011;12052;53.478;10.182;2024-01-10T03:18:28;20.73;;;9.98;;
23743;SDS011;12052;53.478;10.182;2024-01-10T03:20:54;27.92;;;8.70;;
23743;SDS011;12052;53.478;10.182;2024-01-10T03:23:20;25.55;;;9.40;;
23743;SDS011;12052;53.478;10.182;2024-01-10T03:25:47;17.42;;;7.80;;
23743;SDS011;12052;53.478;10.182;2024-01-10T03:28:16;20.50;;;9.40;;
23743;SDS011;12052;53.478;10.182;2024-01-10T03:30:44;12.52;;;7.72;;
23743;SDS011;12052;53.478;10.182;2024-01-10T03:33:10;19.83;;;8.38;;
23743;SDS011;12052;53.478;10.182;2024-01-10T03:35:36;15.38;;;7.15;;
23743;SDS011;12052;53.478;10.182;2024-01-10T03:38:02;25.40;;;10.45;;
23743;SDS011;12052;53.478;10.182;2024-01-10T03:40:27;18.25;;;9.07;;
23743;SDS011;12052;53.478;10.182;2024-01-10T03:42:53;18.88;;;8.98;;
23743;SDS011;12052;53.478;10.182;2024-01-10T03:45:18;16.50;;;8.05;;
23743;SDS011;12052;53.478;10.182;2024-01-10T03:47:47;15.13;;;6.55;;
23743;SDS011;12052;53.478;10.182;2024-01-10T03:50:18;14.38;;;6.82;;
23743;SDS011;12052;53.478;10.182;2024-01-10T03:52:44;15.38;;;6.10;;
23743;SDS011;12052;53.478;10.182;2024-01-10T03:55:11;11.35;;;5.57;;
23743;SDS011;12052;53.478;10.182;2024-01-10T03:57:40;15.48;;;6.25;;
23743;SDS011;12052;53.478;10.182;2024-01-10T04:00:07;11.68;;;6.07;;
23743;SDS011;12052;53.478;10.182;2024-01-10T04:02:35;11.98;;;6.00;;
23743;SDS011;12052;53.478;10.182;2024-01-10T04:05:02;11.30;;;5.25;;
23743;SDS011;12052;53.478;10.182;2024-01-10T04:07:30;7.45;;;4.28;;
23743;SDS011;12052;53.478;10.182;2024-01-10T04:09:56;8.32;;;4.40;;
23743;SDS011;12052;53.478;10.182;2024-01-10T04:12:21;8.57;;;6.30;;
23743;SDS011;12052;53.478;10.182;2024-01-10T04:14:47;8.10;;;4.72;;
23743;SDS011;12052;53.478;10.182;2024-01-10T04:17:12;8.52;;;4.03;;
23743;SDS011;12052;53.478;10.182;2024-01-10T04:19:38;12.27;;;4.60;;
23743;SDS011;12052;53.478;10.182;2024-01-10T04:22:04;11.70;;;5.03;;
23743;SDS011;12052;53.478;10.182;2024-01-10T04:24:29;10.02;;;5.45;;
23743;SDS011;12052;53.478;10.182;2024-01-10T04:26:55;5.85;;;4.13;;
23743;SDS011;12052;53.478;10.182;2024-01-10T04:29:20;7.35;;;4.72;;
23743;SDS011;12052;53.478;10.182;2024-01-10T04:31:46;12.65;;;6.18;;
23743;SDS011;12052;53.478;10.182;2024-01-10T04:34:11;9.23;;;5.30;;
23743;SDS011;12052;53.478;10.182;2024-01-10T04:36:37;12.82;;;5.70;;
23743;SDS011;12052;53.478;10.182;2024-01-10T04:39:03;9.65;;;6.20;;
23743;SDS011;12052;53.478;10.182;2024-01-10T04:41:29;7.07;;;5.07;;
23743;SDS011;12052;53.478;10.182;2024-01-10T04:43:54;13.95;;;5.47;;
23743;SDS011;12052;53.478;10.182;2024-01-10T04:46:20;11.93;;;6.45;;
23743;SDS011;12052;53.478;10.182;2024-01-10T04:48:46;11.40;;;6.43;;
23743;SDS011;12052;53.478;10.182;2024-01-10T04:51:11;9.85;;;5.72;;
23743;SDS011;12052;53.478;10.182;2024-01-10T04:53:37;14.65;;;5.90;;
23743;SDS011;12052;53.478;10.182;2024-01-10T04:56:03;15.88;;;6.22;;
23743;SDS011;12052;53.478;10.182;2024-01-10T04:58:28;12.55;;;5.55;;
23743;SDS011;12052;53.478;10.182;2024-01-10T05:00:54;10.70;;;5.43;;
23743;SDS011;12052;53.478;10.182;2024-01-10T05:03:20;12.48;;;6.00;;
23743;SDS011;12052;53.478;10.182;2024-01-10T05:05:46;11.32;;;6.45;;
23743;SDS011;12052;53.478;10.182;2024-01-10T05:08:11;15.07;;;6.93;;
23743;SDS011;12052;53.478;10.182;2024-01-10T05:10:37;14.45;;;6.95;;
23743;SDS011;12052;53.478;10.182;2024-01-10T05:13:02;16.98;;;6.97;;
23743;SDS011;12052;53.478;10.182;2024-01-10T05:15:28;18.13;;;8.30;;
23743;SDS011;12052;53.478;10.182;2024-01-10T05:17:53;14.10;;;7.10;;
23743;SDS011;12052;53.478;10.182;2024-01-10T05:20:19;18.17;;;7.00;;
23743;SDS011;12052;53.478;10.182;2024-01-10T05:22:45;12.80;;;7.40;;
23743;SDS011;12052;53.478;10.182;2024-01-10T05:25:11;13.18;;;6.18;;
23743;SDS011;12052;53.478;10.182;2024-01-10T05:27:37;13.25;;;6.85;;
23743;SDS011;12052;53.478;10.182;2024-01-10T05:30:03;21.90;;;6.22;;
23743;SDS011;12052;53.478;10.182;2024-01-10T05:32:29;10.75;;;6.32;;
23743;SDS011;12052;53.478;10.182;2024-01-10T05:34:54;13.73;;;7.05;;
23743;SDS011;12052;53.478;10.182;2024-01-10T05:37:20;13.10;;;7.47;;
23743;SDS011;12052;53.478;10.182;2024-01-10T05:39:47;23.17;;;7.53;;
23743;SDS011;12052;53.478;10.182;2024-01-10T05:42:12;15.15;;;7.05;;
23743;SDS011;12052;53.478;10.182;2024-01-10T05:44:39;12.07;;;6.72;;
23743;SDS011;12052;53.478;10.182;2024-01-10T05:47:05;16.25;;;7.78;;
23743;SDS011;12052;53.478;10.182;2024-01-10T05:49:31;18.05;;;9.13;;
23743;SDS011;12052;53.478;10.182;2024-01-10T05:51:57;12.95;;;6.35;;
23743;SDS011;12052;53.478;10.182;2024-01-10T05:54:23;11.27;;;6.80;;
23743;SDS011;12052;53.478;10.182;2024-01-10T05:56:49;18.05;;;9.50;;
23743;SDS011;12052;53.478;10.182;2024-01-10T05:59:14;12.95;;;7.90;;
23743;SDS011;12052;53.478;10.182;2024-01-10T06:01:41;18.95;;;7.20;;
23743;SDS011;12052;53.478;10.182;2024-01-10T06:04:07;8.77;;;2.97;;
23743;SDS011;12052;53.478;10.182;2024-01-10T06:06:33;15.85;;;7.18;;
23743;SDS011;12052;53.478;10.182;2024-01-10T06:08:59;14.63;;;6.70;;
23743;SDS011;12052;53.478;10.182;2024-01-10T06:11:25;11.93;;;4.90;;
23743;SDS011;12052;53.478;10.182;2024-01-10T06:13:51;10.23;;;4.88;;
23743;SDS011;12052;53.478;10.182;2024-01-10T06:16:16;9.50;;;4.45;;
23743;SDS011;12052;53.478;10.182;2024-01-10T06:18:42;15.10;;;5.75;;
23743;SDS011;12052;53.478;10.182;2024-01-10T06:21:13;16.23;;;5.88;;
23743;SDS011;12052;53.478;10.182;2024-01-10T06:23:39;12.88;;;5.82;;
23743;SDS011;12052;53.478;10.182;2024-01-10T06:26:05;12.27;;;5.97;;
23743;SDS011;12052;53.478;10.182;2024-01-10T06:28:30;15.27;;;6.13;;
23743;SDS011;12052;53.478;10.182;2024-01-10T06:30:56;16.00;;;7.70;;
23743;SDS011;12052;53.478;10.182;2024-01-10T06:33:22;18.40;;;6.38;;
23743;SDS011;12052;53.478;10.182;2024-01-10T06:35:49;17.98;;;7.70;;
23743;SDS011;12052;53.478;10.182;2024-01-10T06:38:15;14.90;;;7.55;;
23743;SDS011;12052;53.478;10.182;2024-01-10T06:40:41;17.38;;;8.60;;
23743;SDS011;12052;53.478;10.182;2024-01-10T06:43:09;15.85;;;6.75;;
23743;SDS011;12052;53.478;10.182;2024-01-10T06:45:35;16.35;;;7.47;;
23743;SDS011;12052;53.478;10.182;2024-01-10T06:48:00;12.52;;;6.38;;
23743;SDS011;12052;53.478;10.182;2024-01-10T06:50:26;22.83;;;8.13;;
23743;SDS011;12052;53.478;10.182;2024-01-10T06:52:51;18.95;;;7.55;;
23743;SDS011;12052;53.478;10.182;2024-01-10T06:55:17;14.35;;;6.30;;
23743;SDS011;12052;53.478;10.182;2024-01-10T06:57:43;14.15;;;7.50;;
23743;SDS011;12052;53.478;10.182;2024-01-10T07:00:09;13.48;;;7.38;;
23743;SDS011;12052;53.478;10.182;2024-01-10T07:02:36;13.57;;;6.57;;
23743;SDS011;12052;53.478;10.182;2024-01-10T07:05:02;17.65;;;7.07;;
23743;SDS011;12052;53.478;10.182;2024-01-10T07:07:31;16.48;;;6.60;;
23743;SDS011;12052;53.478;10.182;2024-01-10T07:10:00;25.13;;;8.55;;
23743;SDS011;12052;53.478;10.182;2024-01-10T07:12:26;11.52;;;5.88;;
23743;SDS011;12052;53.478;10.182;2024-01-10T07:14:51;11.77;;;6.32;;
23743;SDS011;12052;53.478;10.182;2024-01-10T07:17:17;12.32;;;6.60;;
23743;SDS011;12052;53.478;10.182;2024-01-10T07:19:42;19.40;;;7.38;;
23743;SDS011;12052;53.478;10.182;2024-01-10T07:22:08;11.00;;;5.88;;
23743;SDS011;12052;53.478;10.182;2024-01-10T07:24:35;17.00;;;7.05;;
23743;SDS011;12052;53.478;10.182;2024-01-10T07:27:00;16.42;;;6.78;;
23743;SDS011;12052;53.478;10.182;2024-01-10T07:29:26;10.40;;;5.47;;
23743;SDS011;12052;53.478;10.182;2024-01-10T07:31:52;13.82;;;5.97;;
23743;SDS011;12052;53.478;10.182;2024-01-10T07:34:17;14.77;;;6.82;;
23743;SDS011;12052;53.478;10.182;2024-01-10T07:36:43;10.75;;;4.68;;
23743;SDS011;12052;53.478;10.182;2024-01-10T07:39:09;17.90;;;6.75;;
23743;SDS011;12052;53.478;10.182;2024-01-10T07:41:35;13.18;;;6.15;;
23743;SDS011;12052;53.478;10.182;2024-01-10T07:44:00;14.98;;;7.13;;
23743;SDS011;12052;53.478;10.182;2024-01-10T07:46:26;16.88;;;6.80;;
23743;SDS011;12052;53.478;10.182;2024-01-10T07:48:54;13.57;;;6.20;;
23743;SDS011;12052;53.478;10.182;2024-01-10T07:51:20;12.73;;;5.45;;
23743;SDS011;12052;53.478;10.182;2024-01-10T07:53:45;13.85;;;7.03;;
23743;SDS011;12052;53.478;10.182;2024-01-10T07:56:11;13.05;;;5.85;;
23743;SDS011;12052;53.478;10.182;2024-01-10T07:58:38;11.05;;;5.85;;
23743;SDS011;12052;53.478;10.182;2024-01-10T08:01:04;8.82;;;4.82;;
23743;SDS011;12052;53.478;10.182;2024-01-10T08:03:30;16.48;;;6.72;;
23743;SDS011;12052;53.478;10.182;2024-01-10T08:05:55;16.52;;;6.93;;
23743;SDS011;12052;53.478;10.182;2024-01-10T08:08:21;10.48;;;5.30;;
23743;SDS011;12052;53.478;10.182;2024-01-10T08:10:47;16.30;;;5.93;;
23743;SDS011;12052;53.478;10.182;2024-01-10T08:13:12;11.45;;;4.75;;
23743;SDS011;12052;53.478;10.182;2024-01-10T08:15:38;15.20;;;5.30;;
23743;SDS011;12052;53.478;10.182;2024-01-10T08:18:04;16.55;;;6.82;;
23743;SDS011;12052;53.478;10.182;2024-01-10T08:20:30;13.90;;;7.80;;
23743;SDS011;12052;53.478;10.182;2024-01-10T08:22:55;17.50;;;6.47;;
23743;SDS011;12052;53.478;10.182;2024-01-10T08:25:22;10.63;;;4.88;;
23743;SDS011;12052;53.478;10.182;2024-01-10T08:27:48;9.45;;;6.22;;
23743;SDS011;12052;53.478;10.182;2024-01-10T08:30:14;7.68;;;4.85;;
23743;SDS011;12052;53.478;10.182;2024-01-10T08:32:40;12.70;;;5.80;;
23743;SDS011;12052;53.478;10.182;2024-01-10T08:35:06;15.18;;;4.63;;
23743;SDS011;12052;53.478;10.182;2024-01-10T08:37:33;8.63;;;5.00;;
23743;SDS011;12052;53.478;10.182;2024-01-10T08:39:59;9.95;;;5.18;;
23743;SDS011;12052;53.478;10.182;2024-01-10T08:42:31;11.63;;;5.67;;
23743;SDS011;12052;53.478;10.182;2024-01-10T08:44:57;7.03;;;4.60;;
23743;SDS011;12052;53.478;10.182;2024-01-10T08:47:23;11.25;;;5.13;;
23743;SDS011;12052;53.478;10.182;2024-01-10T08:49:49;8.68;;;4.40;;
23743;SDS011;12052;53.478;10.182;2024-01-10T08:52:15;13.35;;;5.22;;
23743;SDS011;12052;53.478;10.182;2024-01-10T08:54:41;7.38;;;4.00;;
23743;SDS011;12052;53.478;10.182;2024-01-10T08:57:07;13.18;;;4.45;;
23743;SDS011;12052;53.478;10.182;2024-01-10T08:59:32;12.23;;;5.22;;
23743;SDS011;12052;53.478;10.182;2024-01-10T09:01:58;7.82;;;4.60;;
23743;SDS011;12052;53.478;10.182;2024-01-10T09:04:24;12.15;;;4.65;;
23743;SDS011;12052;53.478;10.182;2024-01-10T09:06:50;9.73;;;5.00;;
23743;SDS011;12052;53.478;10.182;2024-01-10T09:09:16;10.13;;;4.63;;
23743;SDS011;12052;53.478;10.182;2024-01-10T09:11:45;10.38;;;5.25;;
23743;SDS011;12052;53.478;10.182;2024-01-10T09:14:13;13.73;;;4.85;;
23743;SDS011;12052;53.478;10.182;2024-01-10T09:16:38;12.18;;;4.35;;
23743;SDS011;12052;53.478;10.182;2024-01-10T09:19:04;12.45;;;5.20;;
23743;SDS011;12052;53.478;10.182;2024-01-10T09:21:29;6.43;;;3.92;;
23743;SDS011;12052;53.478;10.182;2024-01-10T09:23:55;11.93;;;5.00;;
23743;SDS011;12052;53.478;10.182;2024-01-10T09:26:21;9.95;;;5.25;;
23743;SDS011;12052;53.478;10.182;2024-01-10T09:28:47;14.25;;;4.20;;
23743;SDS011;12052;53.478;10.182;2024-01-10T09:31:13;15.80;;;5.55;;
23743;SDS011;12052;53.478;10.182;2024-01-10T09:33:39;12.32;;;4.93;;
23743;SDS011;12052;53.478;10.182;2024-01-10T09:36:05;11.80;;;5.25;;
23743;SDS011;12052;53.478;10.182;2024-01-10T09:38:37;14.35;;;5.80;;
23743;SDS011;12052;53.478;10.182;2024-01-10T09:41:03;11.25;;;4.88;;
23743;SDS011;12052;53.478;10.182;2024-01-10T09:43:29;7.65;;;3.70;;
23743;SDS011;12052;53.478;10.182;2024-01-10T09:45:56;7.13;;;3.90;;
23743;SDS011;12052;53.478;10.182;2024-01-10T09:48:24;6.97;;;3.22;;
23743;SDS011;12052;53.478;10.182;2024-01-10T09:50:51;8.63;;;4.18;;
23743;SDS011;12052;53.478;10.182;2024-01-10T09:53:23;10.95;;;4.95;;
23743;SDS011;12052;53.478;10.182;2024-01-10T09:55:51;7.55;;;4.15;;
23743;SDS011;12052;53.478;10.182;2024-01-10T09:58:21;8.80;;;4.35;;
23743;SDS011;12052;53.478;10.182;2024-01-10T10:00:48;7.55;;;4.18;;
23743;SDS011;12052;53.478;10.182;2024-01-10T10:03:13;4.70;;;3.20;;
23743;SDS011;12052;53.478;10.182;2024-01-10T10:05:41;14.45;;;5.35;;
23743;SDS011;12052;53.478;10.182;2024-01-10T10:08:07;9.65;;;4.00;;
23743;SDS011;12052;53.478;10.182;2024-01-10T10:10:35;6.10;;;3.35;;
23743;SDS011;12052;53.478;10.182;2024-01-10T10:13:00;6.20;;;3.25;;
23743;SDS011;12052;53.478;10.182;2024-01-10T10:15:27;12.18;;;5.10;;
23743;SDS011;12052;53.478;10.182;2024-01-10T10:17:53;10.95;;;4.85;;
23743;SDS011;12052;53.478;10.182;2024-01-10T10:25:28;8.63;;;4.03;;
23743;SDS011;12052;53.478;10.182;2024-01-10T10:27:55;8.30;;;4.30;;
23743;SDS011;12052;53.478;10.182;2024-01-10T10:30:20;10.40;;;5.95;;
23743;SDS011;12052;53.478;10.182;2024-01-10T10:32:47;10.25;;;5.30;;
23743;SDS011;12052;53.478;10.182;2024-01-10T10:35:13;13.13;;;4.88;;
23743;SDS011;12052;53.478;10.182;2024-01-10T10:37:38;9.85;;;4.13;;
23743;SDS011;12052;53.478;10.182;2024-01-10T10:40:04;13.00;;;5.80;;
23743;SDS011;12052;53.478;10.182;2024-01-10T10:42:33;8.90;;;5.22;;
23743;SDS011;12052;53.478;10.182;2024-01-10T10:45:02;7.57;;;4.90;;
23743;SDS011;12052;53.478;10.182;2024-01-10T10:47:30;11.90;;;5.00;;
23743;SDS011;12052;53.478;10.182;2024-01-10T10:50:00;9.75;;;5.25;;
23743;SDS011;12052;53.478;10.182;2024-01-10T10:52:28;10.43;;;5.57;;
23743;SDS011;12052;53.478;10.182;2024-01-10T10:54:55;8.75;;;5.05;;
23743;SDS011;12052;53.478;10.182;2024-01-10T10:57:24;9.88;;;5.05;;
23743;SDS011;12052;53.478;10.182;2024-01-10T10:59:51;8.68;;;3.70;;
23743;SDS011;12052;53.478;10.182;2024-01-10T11:02:20;11.73;;;5.03;;
23743;SDS011;12052;53.478;10.182;2024-01-10T11:04:49;8.57;;;4.85;;
23743;SDS011;12052;53.478;10.182;2024-01-10T11:07:18;8.70;;;4.28;;
23743;SDS011;12052;53.478;10.182;2024-01-10T11:09:45;12.13;;;4.97;;
23743;SDS011;12052;53.478;10.182;2024-01-10T11:15:14;12.50;;;5.25;;
23743;SDS011;12052;53.478;10.182;2024-01-10T11:18:02;15.25;;;5.03;;
23743;SDS011;12052;53.478;10.182;2024-01-10T11:20:56;10.77;;;4.97;;
23743;SDS011;12052;53.478;10.182;2024-01-10T11:23:44;8.75;;;4.72;;
23743;SDS011;12052;53.478;10.182;2024-01-10T11:26:14;13.80;;;5.60;;
23743;SDS011;12052;53.478;10.182;2024-01-10T11:28:40;10.55;;;4.75;;
23743;SDS011;12052;53.478;10.182;2024-01-10T11:31:07;10.02;;;4.97;;
23743;SDS011;12052;53.478;10.182;2024-01-10T11:33:39;12.18;;;5.78;;
23743;SDS011;12052;53.478;10.182;2024-01-10T11:36:08;8.15;;;4.55;;
23743;SDS011;12052;53.478;10.182;2024-01-10T11:38:41;6.28;;;3.83;;
23743;SDS011;12052;53.478;10.182;2024-01-10T11:41:12;16.35;;;6.15;;
23743;SDS011;12052;53.478;10.182;2024-01-10T11:43:46;7.78;;;4.00;;
23743;SDS011;12052;53.478;10.182;2024-01-10T11:46:12;8.45;;;5.72;;
23743;SDS011;12052;53.478;10.182;2024-01-10T11:48:38;10.85;;;4.88;;
23743;SDS011;12052;53.478;10.182;2024-01-10T11:51:04;10.18;;;5.07;;
23743;SDS011;12052;53.478;10.182;2024-01-10T11:53:43;9.80;;;4.95;;
23743;SDS011;12052;53.478;10.182;2024-01-10T11:56:12;7.50;;;4.45;;
23743;SDS011;12052;53.478;10.182;2024-01-10T12:01:41;12.15;;;5.60;;
23743;SDS011;12052;53.478;10.182;2024-01-10T12:04:07;15.95;;;5.25;;
23743;SDS011;12052;53.478;10.182;2024-01-10T12:06:35;15.52;;;6.90;;
23743;SDS011;12052;53.478;10.182;2024-01-10T12:09:01;13.27;;;5.80;;
23743;SDS011;12052;53.478;10.182;2024-01-10T12:11:33;15.77;;;7.05;;
23743;SDS011;12052;53.478;10.182;2024-01-10T12:14:08;13.95;;;6.03;;
23743;SDS011;12052;53.478;10.182;2024-01-10T12:16:34;14.25;;;6.00;;
23743;SDS011;12052;53.478;10.182;2024-01-10T12:19:00;13.73;;;6.43;;
23743;SDS011;12052;53.478;10.182;2024-01-10T12:21:25;15.23;;;6.72;;
23743;SDS011;12052;53.478;10.182;2024-01-10T12:23:51;11.70;;;5.82;;
23743;SDS011;12052;53.478;10.182;2024-01-10T12:26:17;14.40;;;5.60;;
23743;SDS011;12052;53.478;10.182;2024-01-10T12:28:56;9.65;;;4.38;;
23743;SDS011;12052;53.478;10.182;2024-01-10T12:31:26;9.93;;;4.53;;
23743;SDS011;12052;53.478;10.182;2024-01-10T12:33:54;11.20;;;6.35;;
23743;SDS011;12052;53.478;10.182;2024-01-10T12:36:20;14.25;;;4.90;;
23743;SDS011;12052;53.478;10.182;2024-01-10T12:38:46;12.85;;;6.55;;
23743;SDS011;12052;53.478;10.182;2024-01-10T12:41:12;12.60;;;5.35;;
23743;SDS011;12052;53.478;10.182;2024-01-10T12:43:40;14.40;;;6.55;;
23743;SDS011;12052;53.478;10.182;2024-01-10T12:46:09;13.57;;;5.05;;
23743;SDS011;12052;53.478;10.182;2024-01-10T12:48:36;11.25;;;5.72;;
23743;SDS011;12052;53.478;10.182;2024-01-10T12:51:06;10.10;;;4.93;;
23743;SDS011;12052;53.478;10.182;2024-01-10T12:53:36;12.52;;;5.60;;
23743;SDS011;12052;53.478;10.182;2024-01-10T12:56:02;10.20;;;4.95;;
23743;SDS011;12052;53.478;10.182;2024-01-10T12:58:32;14.20;;;5.57;;
23743;SDS011;12052;53.478;10.182;2024-01-10T13:01:00;11.65;;;4.55;;
23743;SDS011;12052;53.478;10.182;2024-01-10T13:03:25;11.00;;;5.80;;
23743;SDS011;12052;53.478;10.182;2024-01-10T13:05:51;10.05;;;4.45;;
23743;SDS011;12052;53.478;10.182;2024-01-10T13:08:17;18.00;;;6.18;;
23743;SDS011;12052;53.478;10.182;2024-01-10T13:10:47;11.68;;;5.72;;
23743;SDS011;12052;53.478;10.182;2024-01-10T13:13:13;6.55;;;4.30;;
23743;SDS011;12052;53.478;10.182;2024-01-10T13:15:39;9.30;;;4.13;;
23743;SDS011;12052;53.478;10.182;2024-01-10T13:18:05;9.63;;;4.40;;
23743;SDS011;12052;53.478;10.182;2024-01-10T13:20:35;12.43;;;5.38;;
23743;SDS011;12052;53.478;10.182;2024-01-10T13:23:01;6.28;;;4.03;;
23743;SDS011;12052;53.478;10.182;2024-01-10T13:25:26;8.57;;;4.80;;
23743;SDS011;12052;53.478;10.182;2024-01-10T13:27:52;11.63;;;5.97;;
23743;SDS011;12052;53.478;10.182;2024-01-10T13:30:18;10.60;;;4.57;;
23743;SDS011;12052;53.478;10.182;2024-01-10T13:32:44;7.05;;;4.38;;
23743;SDS011;12052;53.478;10.182;2024-01-10T13:35:12;10.52;;;4.70;;
23743;SDS011;12052;53.478;10.182;2024-01-10T13:37:43;8.43;;;4.88;;
23743;SDS011;12052;53.478;10.182;2024-01-10T13:40:09;8.35;;;3.75;;
23743;SDS011;12052;53.478;10.182;2024-01-10T13:42:37;9.32;;;4.88;;
23743;SDS011;12052;53.478;10.182;2024-01-10T13:45:04;10.35;;;5.25;;
23743;SDS011;12052;53.478;10.182;2024-01-10T13:47:31;12.85;;;4.70;;
23743;SDS011;12052;53.478;10.182;2024-01-10T13:49:58;12.13;;;4.45;;
23743;SDS011;12052;53.478;10.182;2024-01-10T13:52:24;10.30;;;5.28;;
23743;SDS011;12052;53.478;10.182;2024-01-10T13:54:50;10.75;;;5.47;;
23743;SDS011;12052;53.478;10.182;2024-01-10T13:57:16;10.30;;;4.53;;
23743;SDS011;12052;53.478;10.182;2024-01-10T13:59:42;10.80;;;4.30;;
23743;SDS011;12052;53.478;10.182;2024-01-10T14:02:09;7.45;;;3.63;;
23743;SDS011;12052;53.478;10.182;2024-01-10T14:04:35;7.28;;;3.58;;
23743;SDS011;12052;53.478;10.182;2024-01-10T14:07:00;5.88;;;3.17;;
23743;SDS011;12052;53.478;10.182;2024-01-10T14:09:26;5.43;;;3.80;;
23743;SDS011;12052;53.478;10.182;2024-01-10T14:11:52;6.13;;;3.53;;
23743;SDS011;12052;53.478;10.182;2024-01-10T14:14:17;6.75;;;3.22;;
23743;SDS011;12052;53.478;10.182;2024-01-10T14:16:43;6.97;;;3.60;;
23743;SDS011;12052;53.478;10.182;2024-01-10T14:19:09;6.50;;;4.15;;
23743;SDS011;12052;53.478;10.182;2024-01-10T14:21:34;6.97;;;4.20;;
23743;SDS011;12052;53.478;10.182;2024-01-10T14:24:00;5.38;;;3.42;;
23743;SDS011;12052;53.478;10.182;2024-01-10T14:26:26;7.88;;;4.18;;
23743;SDS011;12052;53.478;10.182;2024-01-10T14:28:52;7.03;;;3.92;;
23743;SDS011;12052;53.478;10.182;2024-01-10T14:31:20;9.68;;;4.10;;
23743;SDS011;12052;53.478;10.182;2024-01-10T14:33:46;8.05;;;4.10;;